createdAt,value
2019-05-21T00:00:58.137Z,6.37
2019-05-21T00:03:28.336Z,5.77
2019-05-21T00:05:58.457Z,6.13
2019-05-21T00:08:28.418Z,5.80
2019-05-21T00:10:58.507Z,6.90
2019-05-21T00:13:28.615Z,6.00
2019-05-21T00:15:58.697Z,6.37
2019-05-21T00:18:28.644Z,7.10
2019-05-21T00:20:58.671Z,6.93
2019-05-21T00:23:28.797Z,7.47
2019-05-21T00:25:59.019Z,7.30
2019-05-21T00:28:38.866Z,7.93
2019-05-21T00:31:45.444Z,7.40
2019-05-21T00:34:51.898Z,7.33
2019-05-21T00:37:59.104Z,7.93
2019-05-21T00:41:05.980Z,8.40
2019-05-21T00:43:48.499Z,8.23
2019-05-21T00:46:18.734Z,8.17
2019-05-21T00:48:48.939Z,8.20
2019-05-21T00:51:19.502Z,8.93
2019-05-21T00:53:49.864Z,8.70
2019-05-21T00:56:20.302Z,8.73
2019-05-21T00:58:51.452Z,9.87
2019-05-21T01:01:21.834Z,9.43
2019-05-21T01:03:52.071Z,11.33
2019-05-21T01:06:22.955Z,10.60
2019-05-21T01:08:52.994Z,10.90
2019-05-21T01:11:23.061Z,10.97
2019-05-21T01:13:53.064Z,11.13
2019-05-21T01:16:23.225Z,11.23
2019-05-21T01:18:53.468Z,11.73
2019-05-21T01:21:23.559Z,12.10
2019-05-21T01:23:53.783Z,12.23
2019-05-21T01:26:24.022Z,13.20
2019-05-21T01:28:54.167Z,12.37
2019-05-21T01:31:24.257Z,13.27
2019-05-21T01:33:54.303Z,12.43
2019-05-21T01:36:24.729Z,14.00
2019-05-21T01:38:54.878Z,14.33
2019-05-21T01:41:25.139Z,14.57
2019-05-21T01:43:55.390Z,14.93
2019-05-21T01:46:25.828Z,16.67
2019-05-21T01:48:55.912Z,16.93
2019-05-21T01:51:26.049Z,18.63
2019-05-21T01:53:57.655Z,18.43
2019-05-21T01:56:28.031Z,19.03
2019-05-21T01:58:58.292Z,18.10
2019-05-21T02:01:28.368Z,20.23
2019-05-21T02:03:58.900Z,20.67
2019-05-21T02:06:29.129Z,21.87
2019-05-21T02:08:59.226Z,20.97
2019-05-21T02:11:29.576Z,21.17
2019-05-21T02:14:00.279Z,22.47
2019-05-21T02:16:30.571Z,21.80
2019-05-21T02:19:00.890Z,22.70
2019-05-21T02:21:31.588Z,24.23
2019-05-21T02:24:01.809Z,23.33
2019-05-21T02:26:32.092Z,24.13
2019-05-21T02:29:02.505Z,25.97
2019-05-21T02:31:32.851Z,25.90
2019-05-21T02:34:03.155Z,26.87
2019-05-21T02:36:33.726Z,25.83
2019-05-21T02:39:05.318Z,25.80
2019-05-21T02:41:37.405Z,24.90
2019-05-21T02:44:07.475Z,25.33
2019-05-21T02:46:37.704Z,27.57
2019-05-21T02:49:07.812Z,25.07
2019-05-21T02:51:37.836Z,28.30
2019-05-21T02:54:07.913Z,27.07
2019-05-21T02:56:38.102Z,25.93
2019-05-21T02:59:08.192Z,26.73
2019-05-21T03:01:40.072Z,27.30
2019-05-21T03:04:10.238Z,28.13
2019-05-21T03:06:40.426Z,28.40
2019-05-21T03:09:11.043Z,27.27
2019-05-21T03:11:41.566Z,27.60
2019-05-21T03:14:11.885Z,26.83
2019-05-21T03:16:42.046Z,27.17
2019-05-21T03:19:16.343Z,28.27
2019-05-21T03:21:43.546Z,27.63
2019-05-21T03:24:13.706Z,28.43
2019-05-21T03:26:43.721Z,29.10
2019-05-21T03:29:13.739Z,29.87
2019-05-21T03:31:44.105Z,28.40
2019-05-21T03:34:16.273Z,29.13
2019-05-21T03:36:46.551Z,28.80
2019-05-21T03:39:19.223Z,28.60
2019-05-21T03:41:48.392Z,28.23
2019-05-21T03:44:18.614Z,29.43
2019-05-21T03:46:48.782Z,28.77
2019-05-21T03:49:20.071Z,28.93
2019-05-21T03:51:50.282Z,29.43
2019-05-21T03:54:20.415Z,27.93
2019-05-21T03:56:50.608Z,30.97
2019-05-21T03:59:20.677Z,28.27
2019-05-21T04:01:50.857Z,28.87
2019-05-21T04:04:20.985Z,28.53
2019-05-21T04:06:52.693Z,29.33
2019-05-21T04:09:23.122Z,29.70
2019-05-21T04:11:53.652Z,29.60
2019-05-21T04:14:31.978Z,30.27
2019-05-21T04:17:19.198Z,30.33
2019-05-21T04:19:50.981Z,31.27
2019-05-21T04:22:21.013Z,28.50
2019-05-21T04:24:51.135Z,30.73
2019-05-21T04:27:21.172Z,29.90
2019-05-21T04:29:51.123Z,30.90
2019-05-21T04:32:21.028Z,30.20
2019-05-21T04:34:51.168Z,30.83
2019-05-21T04:37:21.201Z,29.33
2019-05-21T04:39:51.358Z,32.30
2019-05-21T04:42:21.205Z,30.27
2019-05-21T04:44:51.470Z,29.37
2019-05-21T04:47:21.585Z,28.50
2019-05-21T04:49:51.790Z,30.10
2019-05-21T04:52:21.911Z,28.30
2019-05-21T04:54:52.019Z,26.60
2019-05-21T04:57:22.019Z,27.10
2019-05-21T04:59:51.852Z,25.43
2019-05-21T05:02:22.196Z,26.63
2019-05-21T05:04:52.314Z,26.27
2019-05-21T05:07:28.432Z,24.33
2019-05-21T05:09:54.508Z,23.70
2019-05-21T05:12:24.839Z,23.30
2019-05-21T05:14:54.996Z,22.90
2019-05-21T05:17:25.339Z,22.30
2019-05-21T05:19:55.476Z,21.47
2019-05-21T05:22:25.727Z,22.03
2019-05-21T05:24:55.822Z,20.30
2019-05-21T05:27:25.966Z,20.97
2019-05-21T05:29:55.977Z,21.37
2019-05-21T05:32:26.140Z,20.43
2019-05-21T05:34:56.403Z,19.07
2019-05-21T05:37:26.318Z,18.13
2019-05-21T05:39:56.338Z,18.13
2019-05-21T05:42:26.585Z,18.33
2019-05-21T05:44:56.785Z,20.17
2019-05-21T05:47:27.004Z,18.10
2019-05-21T05:49:58.747Z,19.30
2019-05-21T05:52:28.777Z,17.30
2019-05-21T05:54:58.753Z,17.93
2019-05-21T05:57:30.739Z,18.57
2019-05-21T06:00:00.647Z,18.07
2019-05-21T06:02:30.616Z,18.63
2019-05-21T06:05:00.605Z,17.77
2019-05-21T06:07:30.585Z,17.33
2019-05-21T06:10:00.623Z,18.40
2019-05-21T06:12:30.673Z,17.03
2019-05-21T06:15:01.016Z,17.37
2019-05-21T06:17:31.312Z,18.37
2019-05-21T06:20:01.381Z,17.03
2019-05-21T06:22:31.567Z,17.00
2019-05-21T06:25:01.825Z,17.83
2019-05-21T06:27:32.063Z,18.23
2019-05-21T06:30:02.132Z,16.73
2019-05-21T06:32:32.222Z,17.40
2019-05-21T06:35:02.431Z,17.23
2019-05-21T06:37:32.410Z,15.87
2019-05-21T06:40:02.485Z,16.23
2019-05-21T06:42:32.422Z,16.30
2019-05-21T06:45:02.672Z,16.97
2019-05-21T06:47:33.067Z,16.90
2019-05-21T06:50:03.794Z,17.63
2019-05-21T06:52:34.044Z,16.90
2019-05-21T06:55:05.578Z,17.63
2019-05-21T06:57:35.950Z,16.47
2019-05-21T07:00:08.805Z,17.67
2019-05-21T07:02:38.941Z,17.77
2019-05-21T07:05:09.213Z,17.47
2019-05-21T07:07:39.161Z,19.03
2019-05-21T07:10:09.848Z,17.63
2019-05-21T07:12:40.219Z,18.53
2019-05-21T07:15:10.544Z,19.50
2019-05-21T07:17:40.659Z,18.57
2019-05-21T07:20:12.298Z,19.13
2019-05-21T07:22:42.566Z,18.60
2019-05-21T07:25:13.235Z,19.60
2019-05-21T07:27:43.567Z,19.70
2019-05-21T07:30:13.961Z,18.67
2019-05-21T07:32:43.943Z,17.40
2019-05-21T07:35:14.037Z,16.63
2019-05-21T07:37:44.007Z,16.60
2019-05-21T07:40:15.127Z,16.70
2019-05-21T07:42:45.500Z,16.43
2019-05-21T07:45:15.865Z,16.77
2019-05-21T07:47:45.738Z,16.57
2019-05-21T07:50:15.862Z,16.20
2019-05-21T07:52:45.911Z,15.27
2019-05-21T07:55:16.221Z,16.67
2019-05-21T07:57:46.362Z,15.73
2019-05-21T08:00:17.392Z,15.00
2019-05-21T08:02:47.730Z,14.73
2019-05-21T08:05:17.856Z,14.27
2019-05-21T08:07:48.152Z,15.63
2019-05-21T08:10:18.693Z,14.73
2019-05-21T08:12:48.613Z,14.43
2019-05-21T08:15:18.724Z,14.20
2019-05-21T08:17:48.718Z,15.20
2019-05-21T08:20:20.739Z,14.70
2019-05-21T08:22:51.133Z,15.87
2019-05-21T08:25:21.287Z,14.90
2019-05-21T08:27:51.708Z,14.97
2019-05-21T08:30:22.083Z,15.90
2019-05-21T08:32:52.110Z,14.57
2019-05-21T08:35:22.597Z,15.17
2019-05-21T08:37:52.788Z,14.80
2019-05-21T08:40:22.744Z,16.17
2019-05-21T08:42:52.941Z,15.70
2019-05-21T08:45:23.140Z,16.13
2019-05-21T08:47:53.300Z,17.07
2019-05-21T08:50:23.638Z,15.13
2019-05-21T08:52:53.884Z,15.90
2019-05-21T08:55:24.134Z,14.60
2019-05-21T08:58:06.634Z,17.03
2019-05-21T09:00:26.360Z,16.60
2019-05-21T09:02:56.582Z,16.13
2019-05-21T09:05:26.691Z,15.73
2019-05-21T09:07:57.333Z,15.83
2019-05-21T09:10:27.404Z,15.87
2019-05-21T09:12:57.771Z,15.77
2019-05-21T09:15:28.074Z,17.23
2019-05-21T09:17:58.205Z,16.13
2019-05-21T09:20:28.494Z,16.10
2019-05-21T09:22:58.749Z,17.33
2019-05-21T09:25:28.989Z,16.63
2019-05-21T09:27:59.401Z,16.00
2019-05-21T09:30:29.780Z,16.33
2019-05-21T09:32:59.814Z,17.00
2019-05-21T09:35:30.083Z,16.33
2019-05-21T09:38:00.079Z,17.00
2019-05-21T09:40:30.478Z,17.10
2019-05-21T09:43:00.734Z,17.03
2019-05-21T09:45:31.090Z,16.77
2019-05-21T09:48:01.278Z,17.13
2019-05-21T09:50:31.625Z,17.27
2019-05-21T09:53:01.830Z,17.97
2019-05-21T09:55:33.745Z,17.50
2019-05-21T09:58:14.432Z,19.27
2019-05-21T10:00:49.048Z,18.27
2019-05-21T10:03:20.889Z,18.53
2019-05-21T10:05:51.086Z,19.67
2019-05-21T10:08:21.213Z,19.93
2019-05-21T10:10:51.686Z,19.07
2019-05-21T10:13:22.179Z,19.37
2019-05-21T10:15:52.657Z,20.17
2019-05-21T10:18:22.916Z,20.57
2019-05-21T10:20:53.124Z,21.87
2019-05-21T10:23:23.233Z,20.17
2019-05-21T10:25:53.474Z,20.63
2019-05-21T10:28:23.653Z,20.53
2019-05-21T10:30:53.824Z,20.93
2019-05-21T10:33:24.040Z,21.20
2019-05-21T10:35:54.267Z,22.70
2019-05-21T10:38:24.364Z,21.33
2019-05-21T10:40:54.597Z,21.27
2019-05-21T10:43:24.710Z,22.03
2019-05-21T10:45:54.835Z,22.17
2019-05-21T10:48:25.130Z,22.27
2019-05-21T10:50:55.469Z,22.00
2019-05-21T10:53:25.692Z,22.37
2019-05-21T10:55:55.798Z,23.17
2019-05-21T10:58:26.394Z,21.83
2019-05-21T11:00:58.409Z,22.40
2019-05-21T11:03:42.057Z,22.27
2019-05-21T11:06:12.759Z,22.40
2019-05-21T11:08:43.119Z,22.77
2019-05-21T11:11:13.235Z,21.67
2019-05-21T11:13:43.233Z,21.03
2019-05-21T11:16:13.717Z,22.63
2019-05-21T11:18:44.018Z,22.67
2019-05-21T11:21:15.660Z,23.03
2019-05-21T11:23:46.096Z,22.77
2019-05-21T11:26:16.527Z,23.13
2019-05-21T11:28:46.947Z,22.97
2019-05-21T11:31:17.287Z,22.43
2019-05-21T11:33:47.602Z,22.30
2019-05-21T11:36:17.955Z,22.60
2019-05-21T11:38:48.249Z,22.97
2019-05-21T11:41:51.636Z,22.20
2019-05-21T11:44:21.040Z,22.77
2019-05-21T11:46:51.549Z,23.37
2019-05-21T11:49:22.042Z,23.17
2019-05-21T11:51:52.543Z,22.80
2019-05-21T11:54:22.791Z,22.53
2019-05-21T11:56:53.090Z,22.27
2019-05-21T11:59:23.239Z,22.80
2019-05-21T12:01:53.658Z,23.40
2019-05-21T12:04:23.763Z,24.27
2019-05-21T12:06:53.875Z,24.90
2019-05-21T12:09:23.735Z,22.27
2019-05-21T12:11:53.832Z,24.10
2019-05-21T12:14:23.786Z,24.77
2019-05-21T12:16:53.824Z,24.03
2019-05-21T12:19:24.226Z,24.67
2019-05-21T12:21:54.144Z,23.97
2019-05-21T12:24:27.449Z,24.20
2019-05-21T12:26:55.758Z,25.30
2019-05-21T12:29:25.894Z,26.00
2019-05-21T12:31:56.063Z,25.60
2019-05-21T12:34:26.108Z,25.83
2019-05-21T12:36:56.284Z,27.40
2019-05-21T12:39:26.479Z,25.33
2019-05-21T12:41:57.049Z,27.47
2019-05-21T12:44:27.431Z,26.50
2019-05-21T12:46:58.813Z,24.77
2019-05-21T12:49:29.126Z,25.97
2019-05-21T12:51:59.430Z,26.60
2019-05-21T12:54:29.532Z,26.87
2019-05-21T12:56:59.854Z,27.40
2019-05-21T12:59:30.298Z,27.90
2019-05-21T13:02:00.730Z,27.70
2019-05-21T13:04:30.834Z,26.33
2019-05-21T13:07:00.843Z,26.87
2019-05-21T13:09:32.901Z,27.40
2019-05-21T13:12:03.485Z,27.70
2019-05-21T13:14:33.702Z,27.77
2019-05-21T13:17:04.032Z,27.77
2019-05-21T13:19:34.189Z,27.07
2019-05-21T13:22:04.519Z,26.67
2019-05-21T13:24:34.746Z,27.70
2019-05-21T13:27:06.184Z,26.33
2019-05-21T13:29:36.286Z,25.03
2019-05-21T13:32:06.432Z,26.90
2019-05-21T13:34:36.524Z,27.47
2019-05-21T13:37:06.773Z,25.80
2019-05-21T13:39:49.440Z,24.90
2019-05-21T13:42:08.599Z,25.20
2019-05-21T13:44:38.512Z,25.07
2019-05-21T13:47:08.822Z,27.00
2019-05-21T13:49:38.921Z,25.87
2019-05-21T13:52:09.028Z,26.83
2019-05-21T13:54:39.137Z,26.73
2019-05-21T13:57:09.173Z,25.90
2019-05-21T13:59:39.341Z,27.50
2019-05-21T14:02:11.094Z,27.40
2019-05-21T14:04:41.520Z,27.70
2019-05-21T14:07:11.635Z,26.83
2019-05-21T14:09:41.759Z,26.23
2019-05-21T14:12:12.255Z,27.33
2019-05-21T14:14:42.426Z,26.47
2019-05-21T14:17:12.440Z,27.17
2019-05-21T14:19:42.855Z,25.53
2019-05-21T14:22:13.120Z,26.97
2019-05-21T14:24:43.344Z,27.27
2019-05-21T14:27:13.648Z,27.00
2019-05-21T14:29:43.814Z,26.20
2019-05-21T14:32:13.955Z,27.77
2019-05-21T14:34:59.938Z,27.13
2019-05-21T14:37:16.074Z,25.80
2019-05-21T14:39:46.373Z,27.37
2019-05-21T14:42:16.582Z,27.57
2019-05-21T14:44:46.817Z,28.50
2019-05-21T14:47:17.078Z,27.67
2019-05-21T14:49:47.484Z,27.27
2019-05-21T14:52:17.541Z,27.87
2019-05-21T14:54:47.804Z,27.67
2019-05-21T14:57:17.964Z,26.87
2019-05-21T14:59:48.255Z,28.63
2019-05-21T15:02:18.469Z,27.97
2019-05-21T15:04:48.890Z,28.00
2019-05-21T15:07:20.328Z,27.87
2019-05-21T15:09:53.345Z,27.83
2019-05-21T15:12:22.345Z,28.93
2019-05-21T15:14:52.551Z,28.27
2019-05-21T15:17:22.649Z,28.10
2019-05-21T15:19:54.597Z,28.00
2019-05-21T15:22:24.857Z,27.20
2019-05-21T15:24:54.991Z,28.80
2019-05-21T15:27:25.109Z,29.63
2019-05-21T15:29:57.293Z,28.13
2019-05-21T15:32:27.888Z,30.07
2019-05-21T15:34:58.841Z,30.43
2019-05-21T15:37:28.856Z,28.77
2019-05-21T15:39:59.037Z,28.30
2019-05-21T15:42:29.626Z,29.40
2019-05-21T15:44:59.730Z,29.23
2019-05-21T15:47:29.855Z,29.70
2019-05-21T15:49:59.971Z,30.13
2019-05-21T15:52:30.213Z,27.67
2019-05-21T15:55:00.441Z,29.47
2019-05-21T15:57:30.559Z,30.43
2019-05-21T16:00:00.863Z,28.70
2019-05-21T16:02:31.251Z,29.40
2019-05-21T16:05:01.736Z,29.23
2019-05-21T16:07:31.871Z,30.17
2019-05-21T16:10:02.179Z,29.83
2019-05-21T16:12:32.495Z,28.87
2019-05-21T16:15:03.098Z,31.83
2019-05-21T16:17:33.443Z,30.47
2019-05-21T16:20:04.937Z,33.60
2019-05-21T16:22:35.048Z,33.03
2019-05-21T16:25:08.888Z,33.53
2019-05-21T16:27:40.288Z,34.03
2019-05-21T16:30:12.463Z,33.53
2019-05-21T16:32:44.066Z,34.27
2019-05-21T16:35:14.311Z,32.17
2019-05-21T16:37:44.457Z,35.00
2019-05-21T16:40:14.959Z,37.17
2019-05-21T16:42:45.177Z,36.73
2019-05-21T16:45:17.932Z,36.90
2019-05-21T16:47:48.195Z,38.23
2019-05-21T16:50:18.436Z,37.50
2019-05-21T16:52:48.520Z,37.33
2019-05-21T16:55:18.777Z,36.93
2019-05-21T16:57:49.100Z,35.70
2019-05-21T17:00:20.562Z,36.07
2019-05-21T17:02:50.675Z,36.77
2019-05-21T17:05:20.899Z,36.80
2019-05-21T17:07:50.967Z,35.93
2019-05-21T17:10:21.021Z,35.47
2019-05-21T17:12:51.046Z,40.23
2019-05-21T17:15:21.047Z,39.23
2019-05-21T17:17:51.299Z,36.83
2019-05-21T17:20:21.697Z,35.90
2019-05-21T17:22:51.855Z,36.43
2019-05-21T17:25:22.367Z,34.20
2019-05-21T17:27:52.376Z,35.10
2019-05-21T17:30:22.638Z,35.33
2019-05-21T17:32:52.942Z,36.17
2019-05-21T17:35:23.020Z,35.03
2019-05-21T17:37:53.222Z,34.93
2019-05-21T17:40:23.601Z,34.23
2019-05-21T17:42:53.596Z,34.70
2019-05-21T17:45:23.947Z,33.67
2019-05-21T17:47:54.000Z,33.37
2019-05-21T17:50:24.493Z,34.00
2019-05-21T17:52:54.805Z,36.20
2019-05-21T17:55:25.037Z,37.27
2019-05-21T17:57:55.356Z,45.53
2019-05-21T18:00:27.686Z,44.50
2019-05-21T18:02:58.604Z,34.83
2019-05-21T18:05:29.140Z,32.87
2019-05-21T18:07:59.401Z,33.03
2019-05-21T18:10:29.648Z,33.37
2019-05-21T18:13:00.103Z,35.40
2019-05-21T18:15:30.622Z,33.47
2019-05-21T18:18:01.978Z,31.83
2019-05-21T18:20:33.001Z,30.43
2019-05-21T18:23:03.985Z,32.53
2019-05-21T18:25:34.148Z,33.17
2019-05-21T18:28:04.266Z,33.77
2019-05-21T18:30:34.404Z,33.13
2019-05-21T18:33:04.845Z,29.10
2019-05-21T18:35:35.091Z,29.27
2019-05-21T18:38:05.352Z,29.10
2019-05-21T18:40:35.631Z,28.03
2019-05-21T18:43:05.790Z,27.43
2019-05-21T18:45:35.896Z,26.80
2019-05-21T18:48:06.201Z,26.93
2019-05-21T18:50:37.222Z,27.87
2019-05-21T18:53:09.170Z,27.30
2019-05-21T18:55:39.617Z,26.40
2019-05-21T18:58:09.559Z,26.37
2019-05-21T19:00:39.663Z,25.07
2019-05-21T19:03:09.713Z,23.40
2019-05-21T19:05:39.860Z,24.87
2019-05-21T19:08:09.874Z,25.60
2019-05-21T19:10:39.890Z,23.90
2019-05-21T19:13:10.003Z,25.70
2019-05-21T19:15:40.068Z,25.03
2019-05-21T19:18:10.244Z,24.83
2019-05-21T19:20:40.361Z,22.80
2019-05-21T19:23:10.464Z,24.43
2019-05-21T19:25:40.654Z,23.20
2019-05-21T19:28:10.906Z,21.97
2019-05-21T19:30:41.222Z,20.23
2019-05-21T19:33:13.090Z,21.53
2019-05-21T19:35:43.166Z,21.87
2019-05-21T19:38:13.407Z,19.57
2019-05-21T19:40:43.429Z,20.00
2019-05-21T19:43:13.639Z,17.33
2019-05-21T19:45:43.741Z,17.10
2019-05-21T19:48:14.068Z,16.47
2019-05-21T19:50:44.311Z,15.80
2019-05-21T19:53:14.515Z,14.20
2019-05-21T19:55:44.600Z,13.43
2019-05-21T19:58:14.762Z,13.03
2019-05-21T20:00:52.430Z,12.67
2019-05-21T20:03:22.719Z,12.10
2019-05-21T20:05:53.107Z,10.63
2019-05-21T20:08:24.051Z,10.00
2019-05-21T20:10:54.121Z,9.40
2019-05-21T20:13:32.696Z,9.23
2019-05-21T20:15:59.320Z,8.27
2019-05-21T20:18:29.722Z,8.23
2019-05-21T20:21:01.116Z,8.93
2019-05-21T20:23:31.523Z,7.90
2019-05-21T20:26:02.321Z,6.93
2019-05-21T20:28:32.498Z,5.80
2019-05-21T20:31:03.840Z,5.67
2019-05-21T20:33:35.405Z,4.30
2019-05-21T20:36:06.665Z,5.10
2019-05-21T20:38:37.138Z,4.53
2019-05-21T20:41:07.548Z,4.50
2019-05-21T20:43:37.579Z,3.93
2019-05-21T20:46:08.476Z,3.80
2019-05-21T20:48:38.886Z,3.50
2019-05-21T20:51:09.276Z,3.80
2019-05-21T20:53:39.208Z,3.57
2019-05-21T20:56:09.345Z,3.40
2019-05-21T20:58:39.722Z,3.00
2019-05-21T21:01:11.237Z,2.80
2019-05-21T21:03:41.771Z,2.87
2019-05-21T21:06:12.137Z,2.93
2019-05-21T21:08:42.746Z,3.10
2019-05-21T21:11:14.517Z,3.10
2019-05-21T21:13:45.121Z,2.87
2019-05-21T21:16:15.791Z,3.03
2019-05-21T21:18:46.770Z,3.20
2019-05-21T21:21:17.202Z,3.47
2019-05-21T21:23:49.069Z,3.20
2019-05-21T21:26:19.576Z,3.57
2019-05-21T21:28:49.719Z,2.73
2019-05-21T21:31:20.049Z,3.47
2019-05-21T21:33:50.694Z,3.23
2019-05-21T21:36:21.733Z,3.03
2019-05-21T21:38:51.898Z,2.80
2019-05-21T21:41:22.615Z,3.17
2019-05-21T21:43:52.853Z,3.70
2019-05-21T21:46:22.906Z,3.50
2019-05-21T21:48:53.230Z,3.53
2019-05-21T21:51:24.910Z,3.00
2019-05-21T21:53:55.477Z,3.60
2019-05-21T21:56:25.699Z,3.40
2019-05-21T21:58:55.896Z,3.57
2019-05-21T22:01:36.230Z,3.70
2019-05-21T22:04:08.586Z,3.63
2019-05-21T22:06:41.850Z,3.83
2019-05-21T22:09:15.563Z,3.53
2019-05-21T22:11:46.741Z,4.07
2019-05-21T22:14:16.917Z,3.67
2019-05-21T22:16:51.598Z,3.87
2019-05-21T22:19:21.605Z,3.60
2019-05-21T22:21:52.441Z,4.47
2019-05-21T22:24:23.143Z,4.07
2019-05-21T22:26:53.917Z,4.20
2019-05-21T22:29:24.594Z,4.20
2019-05-21T22:31:54.764Z,4.40
2019-05-21T22:34:26.029Z,4.30
2019-05-21T22:36:56.865Z,4.27
2019-05-21T22:39:28.962Z,4.77
2019-05-21T22:42:00.292Z,4.97
2019-05-21T22:44:30.716Z,4.27
2019-05-21T22:47:01.347Z,4.97
2019-05-21T22:49:34.001Z,4.83
2019-05-21T22:52:03.822Z,4.57
2019-05-21T22:54:34.154Z,5.03
2019-05-21T22:57:04.426Z,4.87
2019-05-21T22:59:34.760Z,5.23
2019-05-21T23:02:06.966Z,6.33
2019-05-21T23:04:37.389Z,5.10
2019-05-21T23:07:07.612Z,6.10
2019-05-21T23:09:37.958Z,5.00
2019-05-21T23:12:08.748Z,4.70
2019-05-21T23:14:39.267Z,4.93
2019-05-21T23:17:09.714Z,5.53
2019-05-21T23:19:39.834Z,5.50
2019-05-21T23:22:12.892Z,5.27
2019-05-21T23:24:43.354Z,4.53
2019-05-21T23:27:16.394Z,4.50
2019-05-21T23:29:46.552Z,4.93
2019-05-21T23:32:17.075Z,4.97
2019-05-21T23:34:47.522Z,4.00
2019-05-21T23:37:20.079Z,4.60
2019-05-21T23:39:52.297Z,4.43
2019-05-21T23:42:29.672Z,4.77
2019-05-21T23:44:55.166Z,5.30
2019-05-21T23:47:26.576Z,5.10
2019-05-21T23:49:57.060Z,5.73
2019-05-21T23:52:28.237Z,5.20
2019-05-21T23:54:58.741Z,5.47
2019-05-21T23:57:30.699Z,5.33
